Airfield :
LOGIN :

Register | Disclaimer

   EN    FR    IT 

 










Legend :    VFR   Marginal VFR   IFR   Intensive IFR   Very Intensive IFR
Visi :
Ceiling :
>= 8 km
>= 3000ft
5 to 8 km
1000 to 3000 ft
1500m to 5 km
500 to 1000 ft
800 to 1500m
200 to 500 ft
< 800m
< 200 ft
Symbols :   Thunderstorms  Fog  Heavy snow  Heavy precipitations  Wind > 20 kt
SIGMETs :     Misc.  Thunderstorms  Icing  Turbulence  Mountain Waves  Volcanic Ashes







- Airport Elevation : 245 ft
- IATA code : BIQ
- Download approach charts


LFBZ - Biarritz

CURRENT METAR :
  • 112000Z AUTO 16003KT CAVOK 08/06 Q1020 BECMG 27010G20KT

EXPIRED METARs :
  • 111930Z AUTO 12002KT CAVOK 08/06 Q1020 BECMG 27010G20KT
  • 111900Z AUTO 11002KT CAVOK 08/06 Q1020 NOSIG
  • 111830Z AUTO 09003KT CAVOK 08/06 Q1020 NOSIG
  • 111800Z AUTO 09004KT CAVOK 09/06 Q1020 NOSIG
  • 111730Z AUTO 09004KT CAVOK 09/06 Q1020 NOSIG

TAF TAF LFBZ
Valid from the 11 at 18:00 until the 12 at 18:00 UTC


111700Z 1118/1218 09006KT CAVOK
BECMG 1121/1122 27010G20KT
BECMG 1200/1202 4000 -RA OVC015
BECMG 1206/1207 27005KT 9999 NSW SCT040
PROB30
TEMPO 1206/1212 4000 SHRA BKN030TCU
BECMG 1215/1217 VRB02KT CAVOK
No reported NOTAMs for that airfield.



MET'MAP, your aeronautical weather chart ! - Copyright ORBIFLY December 2007 - Disclaimer

ORBIFLY MET'MAP TEAM :

Programming & Development : Alexandra Zaïnal
Concept & Development : Baudouin d'Aumeries
Co-Development & Prog : Marc-Olivier Méhu
Technical & hardware support : Manuel Goepfert

Contact : metmap@orbifly.com




SOURCES & CREDITS :

   NOAA